Terminal Aerodrome Forecast
Issued by NWS

Home | Current Version | Previous Version | Text Only | Print | Product List | Glossary On
Versions: 1 2 3 4 5 6 7 8 9 10 11 12 13 14 15 16 17 18 19 20 21
000
FTUS46 KSEW 292300
TAFHQM
TAF
KHQM 292321Z 3000/3024 24012KT 5SM BR BKN012
      TEMPO 3000/3002 SCT015
     FM300300 26010KT 4SM BR OVC009
     FM300700 26007KT 4SM BR OVC007
     FM301900 24010KT 5SM BR OVC012=

USA.gov is the U.S. government's official web portal to all federal, state and local government web resources and services.